createdAt,value
2022-08-21T00:03:21.776Z,18.88
2022-08-21T00:08:53.192Z,18.86
2022-08-21T00:14:24.585Z,18.86
2022-08-21T00:19:56.045Z,18.86
2022-08-21T00:25:27.430Z,18.85
2022-08-21T00:30:59.452Z,18.85
2022-08-21T00:36:31.038Z,18.83
2022-08-21T00:42:05.906Z,18.82
2022-08-21T00:47:37.467Z,18.81
2022-08-21T00:53:12.102Z,18.78
2022-08-21T00:58:44.255Z,18.77
2022-08-21T01:04:17.070Z,18.76
2022-08-21T01:09:49.409Z,18.76
2022-08-21T01:15:21.557Z,18.75
2022-08-21T01:21:14.292Z,18.73
2022-08-21T01:26:45.919Z,18.73
2022-08-21T01:32:19.378Z,18.71
2022-08-21T01:37:50.551Z,18.70
2022-08-21T01:43:23.863Z,18.70
2022-08-21T01:49:05.872Z,18.69
2022-08-21T01:54:37.608Z,18.68
2022-08-21T02:00:12.233Z,18.67
2022-08-21T02:05:44.190Z,18.66
2022-08-21T02:11:15.925Z,18.65
2022-08-21T02:16:47.595Z,18.64
2022-08-21T02:22:20.007Z,18.62
2022-08-21T02:27:51.370Z,18.63
2022-08-21T02:33:25.040Z,18.61
2022-08-21T02:38:56.128Z,18.61
2022-08-21T02:44:30.076Z,18.60
2022-08-21T02:50:07.547Z,18.59
2022-08-21T02:55:38.879Z,18.59
2022-08-21T03:01:11.339Z,18.58
2022-08-21T03:06:42.769Z,18.58
2022-08-21T03:12:14.068Z,18.57
2022-08-21T03:17:47.140Z,18.57
2022-08-21T03:23:19.096Z,18.54
2022-08-21T03:28:51.880Z,18.55
2022-08-21T03:34:23.282Z,18.55
2022-08-21T03:39:55.568Z,18.54
2022-08-21T03:45:27.064Z,18.53
2022-08-21T03:50:58.465Z,18.53
2022-08-21T03:56:29.941Z,18.51
2022-08-21T04:02:02.988Z,18.50
2022-08-21T04:07:35.250Z,18.50
2022-08-21T04:13:08.184Z,18.50
2022-08-21T04:18:39.598Z,18.48
2022-08-21T04:24:11.612Z,18.48
2022-08-21T04:29:43.327Z,18.48
2022-08-21T04:35:16.020Z,18.48
2022-08-21T04:40:47.789Z,18.47
2022-08-21T04:46:20.106Z,18.46
2022-08-21T04:51:51.446Z,18.45
2022-08-21T04:57:22.444Z,18.43
2022-08-21T05:03:09.443Z,18.43
2022-08-21T05:08:41.647Z,18.43
2022-08-21T05:14:13.647Z,18.43
2022-08-21T05:19:44.564Z,18.43
2022-08-21T05:25:15.624Z,18.44
2022-08-21T05:30:48.166Z,18.44
2022-08-21T05:36:20.393Z,18.43
2022-08-21T05:41:51.362Z,18.45
2022-08-21T05:47:22.490Z,18.44
2022-08-21T05:52:54.029Z,18.44
2022-08-21T05:58:29.722Z,18.44
2022-08-21T06:04:01.587Z,18.45
2022-08-21T06:09:34.271Z,18.44
2022-08-21T06:15:05.717Z,18.47
2022-08-21T06:20:37.022Z,18.50
2022-08-21T06:26:09.883Z,18.51
2022-08-21T06:31:41.007Z,18.56
2022-08-21T06:37:12.462Z,18.57
2022-08-21T06:42:43.844Z,18.60
2022-08-21T06:48:19.204Z,18.62
2022-08-21T06:53:50.998Z,18.66
2022-08-21T06:59:22.258Z,18.69
2022-08-21T07:04:53.574Z,18.74
2022-08-21T07:10:28.616Z,18.81
2022-08-21T07:16:03.898Z,18.86
2022-08-21T07:21:35.689Z,18.90
2022-08-21T07:27:09.923Z,18.93
2022-08-21T07:32:41.633Z,18.97
2022-08-21T07:38:13.033Z,19.00
2022-08-21T07:43:46.211Z,19.03
2022-08-21T07:49:17.160Z,19.05
2022-08-21T07:54:48.267Z,19.09
2022-08-21T08:00:23.618Z,19.13
2022-08-21T08:05:55.237Z,19.18
2022-08-21T08:11:26.403Z,19.23
2022-08-21T08:16:58.097Z,19.28
2022-08-21T08:22:29.650Z,19.33
2022-08-21T08:28:00.986Z,19.37
2022-08-21T08:33:32.359Z,19.40
2022-08-21T08:39:07.069Z,19.47
2022-08-21T08:44:43.971Z,19.50
2022-08-21T08:50:43.471Z,19.51
2022-08-21T08:56:15.423Z,19.54
2022-08-21T09:01:47.031Z,19.57
2022-08-21T09:07:33.609Z,19.59
2022-08-21T09:13:21.122Z,19.59
2022-08-21T09:19:29.611Z,19.63
2022-08-21T09:25:09.961Z,19.63
2022-08-21T09:30:42.214Z,19.64
2022-08-21T09:36:13.329Z,19.66
2022-08-21T09:41:44.353Z,19.67
2022-08-21T09:47:21.901Z,19.71
2022-08-21T09:52:59.986Z,19.75
2022-08-21T09:58:35.874Z,19.82
2022-08-21T10:04:10.775Z,19.86
2022-08-21T10:09:43.084Z,19.94
2022-08-21T10:15:25.219Z,19.98
2022-08-21T10:21:03.578Z,20.05
2022-08-21T10:26:59.229Z,20.13
2022-08-21T10:32:39.008Z,20.22
2022-08-21T10:38:39.200Z,20.32
2022-08-21T10:44:16.553Z,20.44
2022-08-21T10:50:19.281Z,20.51
2022-08-21T10:55:58.298Z,20.53
2022-08-21T11:01:35.448Z,20.59
2022-08-21T11:07:34.668Z,20.66
2022-08-21T11:13:13.174Z,20.75
2022-08-21T11:19:14.270Z,20.83
2022-08-21T11:25:02.277Z,20.90
2022-08-21T11:31:00.981Z,20.95
2022-08-21T11:36:38.434Z,21.03
2022-08-21T11:42:45.656Z,21.10
2022-08-21T11:48:53.945Z,21.18
2022-08-21T11:54:50.355Z,21.29
2022-08-21T12:00:36.174Z,21.34
2022-08-21T12:06:13.949Z,21.44
2022-08-21T12:12:26.426Z,21.50
2022-08-21T12:18:21.348Z,21.53
2022-08-21T12:24:15.749Z,21.54
2022-08-21T12:29:49.525Z,21.59
2022-08-21T12:35:25.505Z,21.61
2022-08-21T12:41:04.508Z,21.66
2022-08-21T12:46:41.255Z,21.68
2022-08-21T12:52:12.264Z,21.71
2022-08-21T12:57:43.793Z,21.71
2022-08-21T13:03:16.177Z,21.72
2022-08-21T13:08:49.172Z,21.79
2022-08-21T13:14:32.212Z,21.83
2022-08-21T13:20:05.534Z,21.83
2022-08-21T13:25:38.779Z,21.87
2022-08-21T13:31:12.043Z,21.91
2022-08-21T13:36:44.591Z,21.93
2022-08-21T13:42:15.838Z,21.97
2022-08-21T13:47:48.918Z,21.98
2022-08-21T13:53:29.553Z,22.03
2022-08-21T13:59:02.999Z,22.03
2022-08-21T14:04:53.016Z,22.07
2022-08-21T14:10:27.722Z,22.08
2022-08-21T14:16:01.094Z,22.09
2022-08-21T14:21:38.274Z,22.12
2022-08-21T14:27:10.205Z,22.14
2022-08-21T14:32:44.892Z,22.17
2022-08-21T14:38:23.450Z,22.20
2022-08-21T14:44:06.110Z,22.20
2022-08-21T14:49:41.109Z,22.20
2022-08-21T14:55:15.243Z,22.21
2022-08-21T15:00:46.492Z,22.24
2022-08-21T15:06:19.103Z,22.29
2022-08-21T15:11:50.565Z,22.30
2022-08-21T15:17:21.773Z,22.28
2022-08-21T15:22:54.133Z,22.30
2022-08-21T15:28:25.853Z,22.29
2022-08-21T15:34:03.697Z,22.28
2022-08-21T15:39:37.453Z,22.27
2022-08-21T15:45:12.494Z,22.27
2022-08-21T15:50:44.011Z,22.28
2022-08-21T15:56:28.258Z,22.27
2022-08-21T16:01:59.795Z,22.26
2022-08-21T16:07:30.846Z,22.21
2022-08-21T16:13:04.107Z,22.20
2022-08-21T16:18:35.023Z,22.18
2022-08-21T16:24:06.274Z,22.16
2022-08-21T16:29:38.074Z,22.13
2022-08-21T16:35:13.993Z,22.08
2022-08-21T16:40:45.775Z,22.03
2022-08-21T16:46:17.832Z,22.00
2022-08-21T16:51:49.177Z,21.96
2022-08-21T16:57:20.401Z,21.93
2022-08-21T17:02:54.201Z,21.89
2022-08-21T17:08:25.570Z,21.86
2022-08-21T17:13:58.206Z,21.81
2022-08-21T17:19:29.690Z,21.78
2022-08-21T17:25:01.011Z,21.74
2022-08-21T17:30:32.805Z,21.69
2022-08-21T17:36:05.292Z,21.65
2022-08-21T17:41:36.910Z,21.62
2022-08-21T17:47:09.015Z,21.58
2022-08-21T17:52:40.687Z,21.54
2022-08-21T17:58:13.630Z,21.50
2022-08-21T18:03:46.590Z,21.45
2022-08-21T18:09:18.650Z,21.42
2022-08-21T18:14:50.602Z,21.38
2022-08-21T18:20:24.077Z,21.34
2022-08-21T18:25:57.504Z,21.30
2022-08-21T18:31:30.716Z,21.25
2022-08-21T18:37:02.694Z,21.22
2022-08-21T18:42:38.975Z,21.18
2022-08-21T18:48:11.843Z,21.14
2022-08-21T18:53:45.089Z,21.10
2022-08-21T18:59:32.375Z,21.04
2022-08-21T19:05:05.894Z,20.99
2022-08-21T19:10:43.856Z,20.95
2022-08-21T19:16:17.574Z,20.89
2022-08-21T19:21:49.497Z,20.85
2022-08-21T19:27:21.120Z,20.81
2022-08-21T19:32:54.750Z,20.75
2022-08-21T19:38:26.426Z,20.70
2022-08-21T19:44:00.445Z,20.64
2022-08-21T19:49:34.877Z,20.60
2022-08-21T19:55:06.855Z,20.55
2022-08-21T20:00:38.833Z,20.50
2022-08-21T20:06:19.006Z,20.44
2022-08-21T20:11:52.781Z,20.38
2022-08-21T20:17:25.991Z,20.34
2022-08-21T20:22:57.004Z,20.29
2022-08-21T20:28:29.524Z,20.23
2022-08-21T20:34:02.523Z,20.19
2022-08-21T20:39:36.384Z,20.12
2022-08-21T20:45:09.163Z,20.05
2022-08-21T20:50:48.236Z,19.98
2022-08-21T20:56:34.968Z,19.93
2022-08-21T21:02:12.795Z,19.87
2022-08-21T21:07:43.668Z,19.81
2022-08-21T21:13:28.366Z,19.74
2022-08-21T21:19:03.777Z,19.69
2022-08-21T21:24:41.768Z,19.66
2022-08-21T21:30:46.502Z,19.59
2022-08-21T21:36:56.041Z,19.51
2022-08-21T21:42:38.057Z,19.44
2022-08-21T21:48:42.683Z,19.36
2022-08-21T21:55:02.966Z,19.29
2022-08-21T22:00:42.722Z,19.23
2022-08-21T22:06:44.836Z,19.15
2022-08-21T22:12:31.525Z,19.11
2022-08-21T22:18:16.272Z,19.03
2022-08-21T22:23:53.163Z,18.99
2022-08-21T22:29:24.415Z,18.96
2022-08-21T22:35:16.889Z,18.92
2022-08-21T22:40:48.334Z,18.86
2022-08-21T22:46:47.119Z,18.82
2022-08-21T22:52:27.372Z,18.77
2022-08-21T22:58:11.699Z,18.73
2022-08-21T23:03:54.843Z,18.68
2022-08-21T23:09:29.808Z,18.64
2022-08-21T23:15:07.539Z,18.60
2022-08-21T23:20:56.122Z,18.56
2022-08-21T23:27:07.840Z,18.54
2022-08-21T23:33:00.961Z,18.49
2022-08-21T23:38:51.471Z,18.46
2022-08-21T23:44:41.075Z,18.43
2022-08-21T23:50:17.762Z,18.39
2022-08-21T23:55:53.334Z,18.35
